Time;durP1;ratioP1;P1;durP2;ratioP2;P2;SDS_P1;SDS_P2;PMS_P1;PMS_P2;Temp;Humidity;BMP_temperature;BMP_pressure;BME280_temperature;BME280_humidity;BME280_pressure;Samples;Min_cycle;Max_cycle;Signal;HPM_P1;HPM_P2
2023/05/27 00:00:08;;;;;;;5.38;3.25;;;;;;;16.19;nan;584.34;5030793;28;20477;-69
2023/05/27 00:02:35;;;;;;;6.20;3.17;;;;;;;16.07;nan;582.91;5031599;28;20372;-67
2023/05/27 00:05:03;;;;;;;4.55;3.45;;;;;;;16.13;nan;-388.03;5032607;28;20182;-68
2023/05/27 00:07:31;;;;;;;4.75;3.30;;;;;;;16.13;nan;-1035.66;5031125;28;20186;-67
2023/05/27 00:09:58;;;;;;;6.30;3.40;;;;;;;16.07;nan;582.91;5029842;28;20180;-68
2023/05/27 00:12:26;;;;;;;5.47;2.95;;;;;;;16.02;nan;582.19;5031407;28;20190;-67
2023/05/27 00:14:53;;;;;;;4.55;3.25;;;;;;;16.08;nan;906.88;5030958;28;20215;-68
2023/05/27 00:17:20;;;;;;;6.00;3.45;;;;;;;16.03;nan;582.34;5031673;28;20218;-69
2023/05/27 00:19:49;;;;;;;9.45;3.63;;;;;;;15.97;nan;581.56;5030778;28;20260;-66
2023/05/27 00:22:15;;;;;;;5.28;3.58;;;;;;;16.04;nan;1230.38;5029997;28;20572;-66
2023/05/27 00:24:41;;;;;;;4.55;3.42;;;;;;;15.82;nan;1227.44;5030237;28;20187;-67
2023/05/27 00:27:07;;;;;;;5.53;3.30;;;;;;;15.94;nan;2524.78;5031127;28;20662;-68
2023/05/27 00:29:33;;;;;;;5.05;3.45;;;;;;;16.05;nan;3823.22;5030309;28;20678;-69
2023/05/27 00:32:02;;;;;;;7.10;3.80;;;;;;;16.08;nan;3823.66;5029235;28;20179;-67
2023/05/27 00:34:29;;;;;;;7.05;4.13;;;;;;;16.15;nan;3824.94;5031047;28;20200;-67
2023/05/27 00:36:54;;;;;;;7.03;3.67;;;;;;;16.17;nan;3176.78;5030940;28;20654;-67
2023/05/27 00:39:20;;;;;;;6.18;3.58;;;;;;;15.93;nan;4145.25;5030239;28;20271;-68
2023/05/27 00:41:49;;;;;;;4.78;3.30;;;;;;;16.08;nan;3175.28;5030377;28;20199;-68
2023/05/27 00:44:15;;;;;;;5.40;3.45;;;;;;;16.19;nan;4149.94;5031833;28;20348;-67
2023/05/27 00:46:40;;;;;;;5.90;3.38;;;;;;;16.18;nan;3501.28;5035629;28;20179;-67
2023/05/27 00:49:06;;;;;;;5.93;3.53;;;;;;;15.90;nan;3820.53;5034460;28;20171;-68
2023/05/27 00:51:31;;;;;;;6.55;3.72;;;;;;;;;;5034544;28;20665;-67
2023/05/27 00:53:57;;;;;;;5.55;3.40;;;;;;;16.16;nan;5122.44;5035259;28;20183;-67
2023/05/27 00:56:22;;;;;;;5.57;3.50;;;;;;;16.21;nan;5448.00;5034625;28;20194;-67
2023/05/27 00:58:48;;;;;;;6.88;3.10;;;;;;;16.17;nan;7069.78;5034469;28;20175;-67
2023/05/27 01:01:14;;;;;;;4.18;3.00;;;;;;;16.09;nan;9015.72;5035524;28;20254;-68
2023/05/27 01:03:41;;;;;;;4.50;2.90;;;;;;;16.25;nan;12595.06;5033684;28;20219;-67
2023/05/27 01:06:38;;;;;;;6.20;3.17;;;;;;;16.43;nan;14553.16;5033248;28;20183;-68
2023/05/27 01:09:04;;;;;;;5.13;2.92;;;;;;;16.54;nan;19769.69;5027147;28;20175;-68
2023/05/27 01:11:42;;;;;;;6.13;2.45;;;;;;;16.21;nan;19429.50;5034956;28;20183;-68
2023/05/27 01:14:11;;;;;;;4.25;2.90;;;;;;;16.49;nan;21397.97;5033470;28;20211;-68
2023/05/27 01:16:43;;;;;;;5.18;3.17;;;;;;;16.52;nan;22378.09;5033926;28;20194;-69
2023/05/27 01:19:14;;;;;;;4.50;3.05;;;;;;;16.59;nan;23034.22;5034980;28;20187;-68
2023/05/27 01:21:44;;;;;;;4.25;3.13;;;;;;;16.57;nan;22380.53;5033710;28;20193;-69
2023/05/27 01:24:10;;;;;;;5.13;3.28;;;;;;;16.54;nan;21726.53;5034646;28;20617;-69
2023/05/27 01:26:36;;;;;;;3.90;2.72;;;;;;;16.58;nan;21728.44;5034461;28;20274;-67
2023/05/27 01:29:02;;;;;;;3.70;2.85;;;;;;;16.61;nan;20750.94;5035014;28;20321;-67
2023/05/27 01:31:39;;;;;;;6.13;3.40;;;;;;;16.64;nan;23036.47;5034939;28;20179;-67
2023/05/27 01:34:12;;;;;;;4.80;3.30;;;;;;;16.44;nan;22374.22;5034868;28;20210;-67
2023/05/27 01:36:46;;;;;;;6.80;3.67;;;;;;;16.67;nan;23364.41;5034221;28;20213;-68
2023/05/27 01:39:13;;;;;;;7.55;3.65;;;;;;;16.70;nan;24672.06;5034829;28;20266;-68
2023/05/27 01:41:41;;;;;;;4.38;3.10;;;;;;;16.30;nan;24977.84;5034642;28;20183;-67
2023/05/27 01:44:08;;;;;;;5.28;3.40;;;;;;;16.65;nan;23690.13;5033936;28;20199;-67
2023/05/27 01:46:34;;;;;;;6.28;3.15;;;;;;;16.82;nan;25331.50;5032371;28;20548;-67
2023/05/27 01:48:59;;;;;;;4.65;3.15;;;;;;;16.66;nan;29899.50;5033230;28;20210;-69
2023/05/27 01:51:25;;;;;;;3.78;2.95;;;;;;;16.79;nan;25657.16;5033545;28;20210;-68
2023/05/27 01:53:50;;;;;;;6.35;3.42;;;;;;;16.94;nan;26972.28;5033184;28;20191;-68
2023/05/27 01:56:15;;;;;;;4.85;3.13;;;;;;;16.69;nan;32192.25;5034177;28;20183;-67
2023/05/27 01:58:41;;;;;;;5.50;3.03;;;;;;;16.89;nan;32532.00;5033085;28;22058;-67
2023/05/27 02:01:06;;;;;;;4.85;3.33;;;;;;;17.00;nan;31884.47;5034522;28;20553;-68
2023/05/27 02:03:32;;;;;;;5.60;3.50;;;;;;;17.05;nan;30577.63;5033662;28;20210;-67
2023/05/27 02:05:57;;;;;;;4.15;3.10;;;;;;;16.87;nan;31875.81;5033201;28;20581;-68
2023/05/27 02:08:23;;;;;;;5.00;2.97;;;;;;;17.09;nan;34183.72;5033490;28;20195;-67
2023/05/27 02:10:48;;;;;;;3.42;2.75;;;;;;;16.75;nan;32196.13;5033367;28;20175;-67
2023/05/27 02:13:14;;;;;;;6.75;3.40;;;;;;;16.80;nan;32199.03;5033433;28;20186;-68
2023/05/27 02:15:40;;;;;;;6.63;3.15;;;;;;;16.77;nan;31869.75;5033414;28;20278;-66
2023/05/27 02:18:06;;;;;;;4.85;3.30;;;;;;;16.79;nan;32526.13;5033841;28;20560;-68
2023/05/27 02:20:31;;;;;;;5.78;3.20;;;;;;;17.01;nan;30575.16;5035468;28;20195;-67
2023/05/27 02:22:57;;;;;;;7.05;3.08;;;;;;;16.70;nan;28266.72;5032449;28;20219;-66
2023/05/27 02:25:22;;;;;;;3.88;3.15;;;;;;;16.93;nan;27953.03;5033538;28;20560;-67
2023/05/27 02:27:48;;;;;;;4.05;2.83;;;;;;;16.94;nan;27626.56;5033626;28;20234;-68
2023/05/27 02:30:15;;;;;;;4.47;2.95;;;;;;;16.79;nan;23370.41;5033094;28;20210;-67
2023/05/27 02:32:40;;;;;;;6.18;3.20;;;;;;;16.78;nan;25656.63;5031177;28;20241;-68
2023/05/27 02:35:07;;;;;;;4.85;2.95;;;;;;;16.78;nan;27290.78;5033384;28;20662;-66
2023/05/27 02:37:33;;;;;;;3.72;3.13;;;;;;;16.73;nan;26633.97;5032741;28;20262;-67
2023/05/27 02:39:58;;;;;;;3.67;2.45;;;;;;;16.84;nan;29255.81;5032398;28;20180;-67
2023/05/27 02:42:24;;;;;;;3.67;2.70;;;;;;;16.91;nan;29587.50;5030242;28;20194;-67
2023/05/27 02:44:49;;;;;;;4.30;2.97;;;;;;;16.61;nan;30223.53;5031234;28;20175;-67
2023/05/27 02:47:15;;;;;;;3.20;2.70;;;;;;;16.75;nan;29578.16;5032855;28;20213;-67
2023/05/27 02:49:40;;;;;;;4.20;2.80;;;;;;;16.87;nan;28603.38;5031749;28;20329;-67
2023/05/27 02:52:05;;;;;;;6.20;3.00;;;;;;;16.89;nan;29586.28;5030285;28;20240;-67
2023/05/27 02:54:31;;;;;;;4.28;3.00;;;;;;;16.96;nan;31554.16;5032995;28;20190;-67
2023/05/27 02:56:56;;;;;;;5.60;3.20;;;;;;;16.87;nan;30566.47;5031847;28;20178;-68
2023/05/27 02:59:22;;;;;;;4.93;3.20;;;;;;;16.90;nan;27297.28;5025647;28;20249;-68
2023/05/27 03:01:47;;;;;;;3.95;3.28;;;;;;;16.75;nan;28596.63;5032166;28;20183;-67
2023/05/27 03:04:12;;;;;;;6.15;3.22;;;;;;;16.94;nan;25664.97;5031689;28;20690;-68
2023/05/27 03:06:38;;;;;;;4.90;3.00;;;;;;;16.92;nan;26317.34;5030576;28;20183;-68
2023/05/27 03:09:04;;;;;;;4.63;2.90;;;;;;;16.60;nan;25320.03;5032545;28;20558;-67
2023/05/27 03:11:29;;;;;;;4.05;2.70;;;;;;;16.83;nan;29909.53;5032120;28;20643;-67
2023/05/27 03:13:55;;;;;;;4.70;3.00;;;;;;;16.91;nan;28932.84;5032670;28;20179;-67
2023/05/27 03:16:22;;;;;;;5.32;3.10;;;;;;;16.97;nan;28936.41;5030961;28;20187;-67
2023/05/27 03:18:48;;;;;;;4.57;2.72;;;;;;;16.99;nan;31556.38;5032924;28;20615;-68
2023/05/27 03:21:13;;;;;;;6.10;3.13;;;;;;;17.12;nan;32547.31;5031611;28;20190;-67
2023/05/27 03:23:39;;;;;;;3.72;2.63;;;;;;;17.05;nan;31887.69;5032988;28;20577;-68
2023/05/27 03:26:04;;;;;;;3.28;2.40;;;;;;;16.87;nan;33513.25;5031945;28;20215;-68
2023/05/27 03:28:30;;;;;;;3.78;2.63;;;;;;;17.04;nan;32541.78;5031887;28;20190;-68
2023/05/27 03:30:56;;;;;;;3.33;2.50;;;;;;;16.79;nan;31871.34;5032690;28;20183;-67
2023/05/27 03:33:23;;;;;;;4.97;2.97;;;;;;;17.08;nan;30579.47;5032057;28;20214;-68
2023/05/27 03:35:49;;;;;;;5.22;3.08;;;;;;;16.90;nan;32532.66;5030808;28;20222;-68
2023/05/27 03:38:14;;;;;;;3.75;3.10;;;;;;;16.85;nan;29583.56;5031303;28;20175;-68
2023/05/27 03:40:40;;;;;;;4.35;2.85;;;;;;;17.16;nan;29602.28;5031230;28;20186;-68
2023/05/27 03:43:05;;;;;;;4.32;3.00;;;;;;;17.20;nan;31569.75;5031970;28;20582;-67
2023/05/27 03:45:31;;;;;;;5.05;3.20;;;;;;;17.18;nan;30586.00;5031979;28;20282;-69
2023/05/27 03:47:56;;;;;;;4.90;3.20;;;;;;;17.20;nan;30914.41;5031600;28;20208;-69
2023/05/27 03:50:21;;;;;;;5.68;3.15;;;;;;;16.99;nan;33521.59;5031639;28;20237;-67
2023/05/27 03:52:47;;;;;;;3.90;2.88;;;;;;;17.14;nan;34187.13;5032307;28;20715;-68
2023/05/27 03:55:12;;;;;;;6.18;2.72;;;;;;;17.28;nan;36492.03;5031639;28;20187;-68
2023/05/27 03:57:38;;;;;;;3.78;2.90;;;;;;;17.26;nan;38748.97;5031265;28;20183;-67
2023/05/27 04:00:21;;;;;;;3.45;2.72;;;;;;;17.37;nan;40317.28;5030689;28;20223;-68
2023/05/27 04:02:47;;;;;;;3.70;2.80;;;;;;;17.51;nan;44268.25;5031365;28;20269;-67
2023/05/27 04:05:13;;;;;;;3.65;2.78;;;;;;;17.45;nan;44291.44;5031628;28;20658;-69
2023/05/27 04:07:38;;;;;;;3.38;2.45;;;;;;;17.30;nan;46668.84;5030677;28;20183;-68
2023/05/27 04:10:04;;;;;;;3.85;2.35;;;;;;;17.69;nan;47858.25;5031073;28;20183;-68
2023/05/27 04:12:29;;;;;;;4.10;2.47;;;;;;;17.50;nan;48096.19;5031528;28;20556;-68
2023/05/27 04:14:56;;;;;;;4.43;2.72;;;;;;;17.94;nan;49817.50;5031048;28;20245;-68
2023/05/27 04:17:21;;;;;;;3.50;2.60;;;;;;;17.93;nan;50829.06;5030527;28;20519;-69
2023/05/27 04:19:48;;;;;;;7.70;2.70;;;;;;;17.99;nan;51517.75;5030598;28;20187;-68
2023/05/27 04:22:14;;;;;;;3.80;2.70;;;;;;;17.81;nan;50858.81;5030661;28;20195;-67
2023/05/27 04:24:40;;;;;;;3.65;2.75;;;;;;;18.17;nan;51789.94;5031153;28;20321;-66
2023/05/27 04:27:06;;;;;;;3.92;2.60;;;;;;;17.98;nan;52602.09;5031447;28;20199;-67
2023/05/27 04:29:33;;;;;;;5.72;2.78;;;;;;;18.21;nan;52851.72;5031843;28;20186;-67
2023/05/27 04:31:58;;;;;;;6.25;2.70;;;;;;;18.06;nan;52522.78;5031931;28;20179;-67
2023/05/27 04:34:24;;;;;;;5.30;3.03;;;;;;;18.41;nan;53294.66;5030873;28;20179;-69
2023/05/27 04:36:49;;;;;;;5.22;2.70;;;;;;;18.24;nan;52493.06;5031748;28;20194;-68
2023/05/27 04:39:18;;;;;;;3.58;2.97;;;;;;;18.53;nan;54713.16;5031624;28;20622;-68
2023/05/27 04:41:44;;;;;;;3.55;2.28;;;;;;;18.50;nan;53961.84;5031100;28;20191;-69
2023/05/27 04:44:11;;;;;;;3.55;2.38;;;;;;;18.48;nan;51930.97;5030438;28;20218;-68
2023/05/27 04:46:38;;;;;;;4.78;2.83;;;;;;;18.39;nan;51494.03;5030168;28;20180;-67
2023/05/27 04:49:04;;;;;;;6.22;2.92;;;;;;;18.71;nan;53284.84;5030524;28;20284;-68
2023/05/27 04:51:30;;;;;;;4.20;2.60;;;;;;;18.72;nan;53185.16;5031082;28;20221;-67
2023/05/27 04:53:56;;;;;;;4.50;2.75;;;;;;;18.94;nan;53444.63;5029782;28;20595;-68
2023/05/27 04:56:21;;;;;;;4.75;3.28;;;;;;;19.04;nan;54113.44;5030575;28;20194;-68
2023/05/27 04:58:48;;;;;;;6.00;3.80;;;;;;;19.09;nan;52002.78;5031271;28;20174;-68
2023/05/27 05:01:17;;;;;;;4.70;3.20;;;;;;;19.39;nan;53678.25;5030907;28;20227;-67
2023/05/27 05:03:52;;;;;;;5.25;3.35;;;;;;;19.31;nan;55800.16;5031191;28;20187;-68
2023/05/27 05:06:22;;;;;;;3.60;2.85;;;;;;;19.79;nan;56548.34;5030999;28;20175;-67
2023/05/27 05:08:48;;;;;;;3.08;2.38;;;;;;;20.03;nan;57057.84;5031260;28;20175;-69
2023/05/27 05:11:14;;;;;;;5.75;3.38;;;;;;;20.38;nan;56560.00;5031508;28;20198;-67
2023/05/27 05:13:40;;;;;;;4.10;2.90;;;;;;;20.36;nan;58616.47;5030889;28;20179;-69
2023/05/27 05:16:06;;;;;;;7.30;3.00;;;;;;;20.63;nan;58811.19;5030251;28;20197;-68
2023/05/27 05:18:31;;;;;;;3.55;2.47;;;;;;;21.02;nan;59086.63;5030940;28;20226;-69
2023/05/27 05:20:56;;;;;;;6.32;3.22;;;;;;;21.23;nan;59566.63;5030511;28;20191;-68
2023/05/27 05:23:22;;;;;;;3.45;2.60;;;;;;;21.23;nan;59519.31;5030648;28;20291;-68
2023/05/27 05:25:54;;;;;;;4.40;2.75;;;;;;;21.51;nan;59833.28;5030299;28;20211;-68
2023/05/27 05:28:19;;;;;;;3.85;2.83;;;;;;;21.50;nan;60292.69;5032085;28;20179;-69
2023/05/27 05:30:45;;;;;;;4.40;2.70;;;;;;;21.91;nan;61497.75;5034584;28;20229;-68
2023/05/27 05:33:10;;;;;;;8.60;4.00;;;;;;;22.02;nan;61665.72;5034640;28;20178;-68
2023/05/27 05:35:35;;;;;;;9.18;3.47;;;;;;;21.89;nan;61664.56;5034218;28;20552;-68
2023/05/27 05:38:01;;;;;;;4.35;2.78;;;;;;;22.08;nan;61755.25;5033903;28;20183;-67
2023/05/27 05:40:26;;;;;;;4.45;3.03;;;;;;;21.78;nan;61721.78;5034183;28;20214;-69
2023/05/27 05:42:52;;;;;;;3.38;2.70;;;;;;;21.92;nan;61868.28;5034492;28;20226;-69
2023/05/27 05:45:17;;;;;;;5.43;3.10;;;;;;;22.32;nan;61824.13;5033916;28;20665;-68
2023/05/27 05:47:42;;;;;;;4.85;2.85;;;;;;;21.98;nan;61942.22;5034420;28;20179;-68
2023/05/27 05:50:08;;;;;;;4.45;3.00;;;;;;;22.39;nan;61832.63;5033992;28;20179;-67
2023/05/27 05:52:34;;;;;;;10.73;2.85;;;;;;;22.32;nan;61829.91;5034567;28;20659;-67
2023/05/27 05:54:59;;;;;;;4.50;2.85;;;;;;;22.01;nan;61756.25;5034306;28;20217;-67
2023/05/27 05:57:24;;;;;;;3.50;2.55;;;;;;;22.04;nan;61844.97;5033966;28;20254;-68
2023/05/27 05:59:50;;;;;;;4.53;2.63;;;;;;;21.61;nan;61989.13;5033916;28;20226;-67
2023/05/27 06:02:15;;;;;;;5.55;2.78;;;;;;;21.14;nan;61824.47;5033932;28;20167;-68
2023/05/27 06:04:41;;;;;;;4.22;2.78;;;;;;;20.85;nan;61823.25;5032289;28;20202;-68
2023/05/27 06:07:06;;;;;;;3.05;2.33;;;;;;;21.01;nan;61805.06;5034030;28;20262;-67
2023/05/27 06:09:31;;;;;;;3.95;2.33;;;;;;;21.13;nan;61693.44;5033839;28;20646;-69
2023/05/27 06:11:57;;;;;;;3.42;2.60;;;;;;;20.82;nan;61669.22;5034315;28;20156;-68
2023/05/27 06:14:22;;;;;;;3.35;2.58;;;;;;;20.90;nan;61745.25;5034148;28;20183;-69
2023/05/27 06:16:48;;;;;;;4.32;3.00;;;;;;;20.49;nan;61681.69;5034063;28;20175;-68
2023/05/27 06:19:13;;;;;;;4.30;2.78;;;;;;;20.92;nan;61698.16;5033928;28;20616;-71
2023/05/27 06:21:39;;;;;;;3.60;2.25;;;;;;;20.69;nan;61678.41;5031920;28;20183;-67
2023/05/27 06:24:05;;;;;;;4.68;2.80;;;;;;;20.76;nan;61628.66;5032351;28;20218;-68
2023/05/27 06:26:30;;;;;;;3.35;2.28;;;;;;;20.64;nan;61674.78;5034282;28;20176;-70
2023/05/27 06:28:55;;;;;;;3.35;2.53;;;;;;;20.33;nan;61642.22;5033685;28;20175;-67
2023/05/27 06:31:21;;;;;;;3.63;2.35;;;;;;;20.18;nan;61615.41;5033475;28;20191;-68
2023/05/27 06:33:46;;;;;;;4.18;2.75;;;;;;;20.53;nan;61625.97;5033594;28;20623;-68
2023/05/27 06:36:12;;;;;;;5.43;2.67;;;;;;;20.31;nan;61608.81;5033711;28;20175;-68
2023/05/27 06:38:37;;;;;;;3.30;2.58;;;;;;;20.27;nan;61709.19;5033240;28;20178;-69
2023/05/27 06:41:02;;;;;;;3.70;2.38;;;;;;;20.23;nan;61696.88;5032355;28;20203;-68
2023/05/27 06:43:28;;;;;;;4.22;2.55;;;;;;;20.17;nan;61583.13;5032902;28;20203;-69
2023/05/27 06:45:53;;;;;;;2.85;2.33;;;;;;;20.20;nan;61709.06;5031989;28;20187;-68
2023/05/27 06:48:19;;;;;;;3.10;2.47;;;;;;;20.47;nan;61595.81;5032759;28;20179;-70
2023/05/27 06:50:45;;;;;;;3.75;2.60;;;;;;;20.60;nan;61607.94;5033454;28;20174;-69
2023/05/27 06:53:10;;;;;;;3.67;2.40;;;;;;;20.40;nan;61684.47;5031911;28;20176;-67
2023/05/27 06:55:36;;;;;;;3.20;2.22;;;;;;;20.61;nan;61611.66;5031979;28;20258;-69
2023/05/27 06:58:01;;;;;;;3.92;2.55;;;;;;;20.32;nan;61581.41;5033245;28;20221;-68
2023/05/27 07:00:27;;;;;;;3.97;2.63;;;;;;;19.75;nan;61617.09;5031676;28;20702;-68
2023/05/27 07:02:52;;;;;;;2.95;2.60;;;;;;;20.60;nan;61750.72;5032397;28;20195;-67
2023/05/27 07:05:17;;;;;;;2.97;2.28;;;;;;;20.58;nan;61642.56;5032401;28;20642;-67
2023/05/27 07:07:43;;;;;;;4.07;2.60;;;;;;;20.45;nan;61744.66;5032471;28;20172;-68
2023/05/27 07:10:08;;;;;;;2.38;2.17;;;;;;;20.24;nan;61606.63;5032851;28;20171;-68
2023/05/27 07:12:33;;;;;;;3.55;2.33;;;;;;;20.64;nan;61682.56;5032723;28;20190;-68
2023/05/27 07:14:59;;;;;;;3.90;2.65;;;;;;;20.18;nan;61732.72;5032613;28;20183;-68
2023/05/27 07:17:24;;;;;;;3.80;2.28;;;;;;;20.60;nan;61659.84;5032277;28;20179;-67
2023/05/27 07:19:50;;;;;;;3.40;2.40;;;;;;;20.69;nan;61937.50;5030402;28;20257;-68
2023/05/27 07:22:15;;;;;;;3.85;2.60;;;;;;;20.51;nan;61696.38;5031933;28;20171;-68
2023/05/27 07:24:41;;;;;;;4.05;2.53;;;;;;;20.64;nan;61631.19;5032464;28;20206;-68
2023/05/27 07:27:06;;;;;;;4.18;2.85;;;;;;;20.38;nan;61622.53;5033136;28;20160;-67
2023/05/27 07:29:33;;;;;;;3.70;2.35;;;;;;;20.63;nan;61785.84;5032767;28;20187;-68
2023/05/27 07:31:58;;;;;;;3.22;2.33;;;;;;;20.71;nan;61810.53;5032630;28;20217;-69
2023/05/27 07:34:23;;;;;;;3.78;2.65;;;;;;;20.71;nan;61654.72;5032246;28;20167;-68
2023/05/27 07:36:49;;;;;;;5.97;2.78;;;;;;;20.95;nan;61730.13;5029818;28;20175;-67
2023/05/27 07:39:14;;;;;;;4.07;2.70;;;;;;;20.95;nan;61707.31;5030839;28;20179;-68
2023/05/27 07:41:40;;;;;;;4.22;2.67;;;;;;;20.83;nan;61808.00;5032268;28;20172;-68
2023/05/27 07:44:05;;;;;;;5.45;2.47;;;;;;;21.09;nan;61718.00;5032214;28;20211;-68
2023/05/27 07:46:32;;;;;;;3.78;2.45;;;;;;;20.80;nan;61848.75;5032384;28;20163;-68
2023/05/27 07:48:57;;;;;;;5.13;2.30;;;;;;;21.10;nan;61742.53;5032152;28;20177;-68
2023/05/27 07:51:23;;;;;;;3.20;2.63;;;;;;;21.45;nan;61831.09;5031525;28;20258;-68
2023/05/27 07:53:48;;;;;;;4.13;2.78;;;;;;;21.71;nan;61758.06;5031549;28;20167;-68
2023/05/27 07:56:14;;;;;;;3.60;2.58;;;;;;;22.04;nan;61808.53;5031762;28;20233;-68
2023/05/27 07:58:39;;;;;;;4.20;2.78;;;;;;;22.08;nan;61969.22;5031307;28;20175;-69
2023/05/27 08:01:05;;;;;;;3.17;2.38;;;;;;;22.63;nan;62033.25;5031440;28;20222;-69
2023/05/27 08:03:30;;;;;;;3.08;2.30;;;;;;;22.97;nan;61980.22;5031711;28;20613;-67
2023/05/27 08:05:56;;;;;;;5.15;2.35;;;;;;;23.20;nan;62027.81;5031586;28;20164;-67
2023/05/27 08:08:21;;;;;;;3.00;2.30;;;;;;;23.10;nan;62204.13;5031441;28;20167;-68
2023/05/27 08:10:47;;;;;;;4.75;2.40;;;;;;;22.99;nan;61996.06;5030523;28;20616;-69
2023/05/27 08:13:12;;;;;;;3.75;2.42;;;;;;;22.66;nan;62080.97;5031408;28;20183;-69
2023/05/27 08:15:37;;;;;;;3.40;2.40;;;;;;;22.48;nan;61915.19;5031678;28;20602;-69
2023/05/27 08:18:04;;;;;;;3.55;2.47;;;;;;;22.18;nan;61938.38;5030484;28;20176;-69
2023/05/27 08:20:29;;;;;;;3.75;2.47;;;;;;;22.15;nan;61899.09;5031297;28;20171;-68
2023/05/27 08:22:55;;;;;;;3.97;2.60;;;;;;;21.73;nan;61932.00;5030029;28;20550;-68
2023/05/27 08:25:20;;;;;;;4.38;2.53;;;;;;;22.09;nan;61912.53;5031708;28;20254;-68
2023/05/27 08:27:57;;;;;;;4.00;2.45;;;;;;;22.17;nan;61906.00;5032178;28;20163;-69
2023/05/27 08:30:22;;;;;;;3.55;2.55;;;;;;;22.25;nan;62131.16;5031658;28;20641;-68
2023/05/27 08:32:48;;;;;;;7.15;2.53;;;;;;;22.10;nan;61815.34;5031438;28;20232;-68
2023/05/27 08:35:14;;;;;;;3.10;2.60;;;;;;;22.25;nan;61863.59;5031185;28;20175;-67
2023/05/27 08:37:40;;;;;;;8.13;2.60;;;;;;;21.94;nan;61966.88;5030973;28;20182;-69
2023/05/27 08:40:09;;;;;;;5.38;3.08;;;;;;;22.04;nan;62019.31;5031477;28;20186;-68
2023/05/27 08:42:36;;;;;;;3.90;2.75;;;;;;;21.92;nan;61961.97;5031170;28;20183;-68
2023/05/27 08:45:01;;;;;;;3.15;2.53;;;;;;;22.09;nan;62001.00;5031775;28;20186;-68
2023/05/27 08:47:29;;;;;;;5.05;3.30;;;;;;;21.91;nan;61809.94;5029813;28;20183;-69
2023/05/27 08:49:55;;;;;;;4.30;2.72;;;;;;;21.84;nan;61817.59;5031085;28;20658;-70
2023/05/27 08:52:22;;;;;;;3.60;2.60;;;;;;;21.98;nan;61864.72;5030435;28;20279;-68
2023/05/27 08:54:49;;;;;;;3.60;2.60;;;;;;;21.66;nan;61737.34;5029492;28;20211;-69
2023/05/27 08:57:17;;;;;;;6.10;2.58;;;;;;;21.92;nan;61792.28;5022866;28;20205;-68
2023/05/27 08:59:42;;;;;;;4.95;3.10;;;;;;;22.09;nan;61894.88;5031062;28;20686;-68
2023/05/27 09:02:12;;;;;;;3.95;2.78;;;;;;;21.89;nan;61950.19;5031008;28;20172;-68
2023/05/27 09:04:41;;;;;;;3.58;2.60;;;;;;;22.26;nan;61922.00;5033661;28;20211;-68
2023/05/27 09:07:07;;;;;;;3.22;2.30;;;;;;;22.24;nan;61950.41;5034822;28;20176;-68
2023/05/27 09:09:33;;;;;;;5.45;2.83;;;;;;;22.33;nan;62192.38;5034903;28;20248;-68
2023/05/27 09:12:02;;;;;;;3.75;2.40;;;;;;;22.61;nan;62000.28;5034804;28;20174;-67
2023/05/27 09:14:29;;;;;;;3.78;2.70;;;;;;;22.51;nan;61892.00;5035093;28;20179;-68
2023/05/27 09:16:55;;;;;;;4.05;2.88;;;;;;;22.76;nan;61999.16;5034738;28;20642;-69
2023/05/27 09:19:21;;;;;;;4.68;2.83;;;;;;;22.62;nan;62079.00;5035100;28;20229;-71
2023/05/27 09:21:46;;;;;;;3.80;2.70;;;;;;;;;;5034633;28;20171;-68
2023/05/27 09:24:12;;;;;;;4.15;2.50;;;;;;;22.68;nan;62086.41;5034200;28;20265;-68
2023/05/27 09:26:38;;;;;;;3.67;2.78;;;;;;;22.82;nan;62015.84;5034783;28;20657;-69
2023/05/27 09:29:07;;;;;;;4.93;2.33;;;;;;;22.81;nan;61962.59;5034923;28;20188;-69
2023/05/27 09:31:42;;;;;;;4.60;2.50;;;;;;;23.03;nan;62052.22;5034902;28;20175;-68
2023/05/27 09:34:15;;;;;;;5.05;2.60;;;;;;;23.00;nan;62018.06;5034816;28;20159;-68
2023/05/27 09:36:51;;;;;;;3.85;2.25;;;;;;;22.88;nan;62012.81;5034860;28;20202;-68
2023/05/27 09:39:22;;;;;;;3.33;2.22;;;;;;;23.08;nan;62070.91;5034737;28;20232;-69
2023/05/27 09:41:55;;;;;;;3.03;2.40;;;;;;;23.20;nan;62261.91;5034049;28;20676;-69
2023/05/27 09:44:20;;;;;;;3.35;2.50;;;;;;;23.31;nan;62086.69;5034357;28;20203;-69
2023/05/27 09:46:46;;;;;;;3.83;2.70;;;;;;;23.34;nan;62043.16;5032436;28;20191;-69
2023/05/27 09:49:14;;;;;;;3.22;2.38;;;;;;;23.34;nan;62330.03;5033550;28;20241;-68
2023/05/27 09:51:41;;;;;;;3.63;2.72;;;;;;;23.23;nan;62200.69;5034256;28;20171;-68
2023/05/27 09:54:08;;;;;;;2.47;2.20;;;;;;;23.25;nan;62028.28;5033723;28;20186;-68
2023/05/27 09:56:34;;;;;;;3.08;2.40;;;;;;;23.41;nan;62085.03;5034132;28;20321;-68
2023/05/27 09:59:01;;;;;;;3.03;2.38;;;;;;;23.42;nan;62007.94;5033249;28;20166;-70
2023/05/27 10:01:29;;;;;;;3.20;2.40;;;;;;;23.03;nan;62086.09;5032666;28;20612;-69
2023/05/27 10:03:58;;;;;;;3.53;2.47;;;;;;;23.27;nan;61993.47;5032878;28;20271;-70
2023/05/27 10:06:25;;;;;;;3.22;2.30;;;;;;;23.45;nan;62062.94;5034008;28;20722;-69
2023/05/27 10:08:58;;;;;;;4.28;2.50;;;;;;;23.34;nan;62006.66;5033797;28;20167;-68
2023/05/27 10:11:26;;;;;;;5.65;2.60;;;;;;;23.55;nan;62066.50;5034694;28;20179;-59
2023/05/27 10:13:52;;;;;;;3.67;2.60;;;;;;;23.49;nan;62396.22;5032207;28;20237;-59
2023/05/27 10:16:27;;;;;;;3.35;2.63;;;;;;;23.62;nan;62030.13;5032565;28;20610;-59
2023/05/27 10:18:54;;;;;;;3.63;2.70;;;;;;;23.51;nan;62018.19;5034043;28;20155;-61
2023/05/27 10:21:26;;;;;;;3.20;2.40;;;;;;;23.77;nan;62201.16;5033022;28;20175;-60
2023/05/27 10:24:02;;;;;;;5.00;2.80;;;;;;;24.20;nan;62134.75;5033300;28;20207;-61
2023/05/27 10:26:33;;;;;;;2.97;2.40;;;;;;;24.52;nan;62056.25;5033252;28;20167;-61
2023/05/27 10:29:09;;;;;;;3.70;2.60;;;;;;;24.51;nan;62117.25;5033103;28;20602;-59
2023/05/27 10:31:38;;;;;;;3.45;2.22;;;;;;;24.60;nan;62208.50;5032622;28;20616;-62
2023/05/27 10:34:05;;;;;;;3.63;2.42;;;;;;;24.60;nan;62297.38;5032930;28;20195;-61
2023/05/27 10:36:31;;;;;;;3.72;2.50;;;;;;;24.74;nan;62346.75;5032422;28;20183;-60
2023/05/27 10:38:59;;;;;;;2.65;2.20;;;;;;;25.14;nan;62123.06;5032368;28;20210;-65
2023/05/27 10:41:24;;;;;;;4.63;2.35;;;;;;;25.40;nan;62345.72;5033149;28;20183;-61
2023/05/27 10:43:57;;;;;;;3.88;2.47;;;;;;;25.57;nan;62312.25;5032564;28;20195;-59
2023/05/27 10:46:23;;;;;;;3.15;2.50;;;;;;;25.64;nan;62338.53;5032647;28;20173;-62
2023/05/27 10:48:49;;;;;;;3.22;2.33;;;;;;;26.00;nan;62363.94;5028426;28;20183;-61
2023/05/27 10:51:15;;;;;;;4.10;2.50;;;;;;;26.44;nan;62424.13;5031720;28;20665;-62
2023/05/27 10:53:40;;;;;;;2.92;2.20;;;;;;;26.44;nan;62455.00;5033120;28;20227;-61
2023/05/27 10:56:08;;;;;;;4.82;2.85;;;;;;;26.15;nan;62360.09;5031743;28;20233;-60
2023/05/27 10:58:35;;;;;;;3.17;2.30;;;;;;;26.43;nan;62478.00;5030641;28;20211;-62
2023/05/27 11:01:08;;;;;;;2.85;2.30;;;;;;;26.41;nan;62530.75;5031541;28;20230;-59
2023/05/27 11:03:34;;;;;;;3.58;2.60;;;;;;;26.89;nan;62513.75;5032302;28;20261;-60
2023/05/27 11:06:06;;;;;;;3.38;2.50;;;;;;;27.07;nan;62642.50;5031834;28;20186;-61
2023/05/27 11:08:34;;;;;;;3.03;2.42;;;;;;;27.64;nan;62702.00;5017216;28;20219;-61
2023/05/27 11:11:05;;;;;;;4.60;3.00;;;;;;;27.93;nan;62758.31;5032686;28;20178;-61
2023/05/27 11:13:36;;;;;;;3.35;2.30;;;;;;;27.54;nan;62779.81;5032500;28;20170;-60
2023/05/27 11:16:03;;;;;;;2.33;1.92;;;;;;;27.67;nan;62757.97;5031719;28;20244;-61
2023/05/27 11:18:40;;;;;;;2.72;2.05;;;;;;;27.73;nan;62789.97;5024819;28;20214;-60
2023/05/27 11:21:07;;;;;;;3.35;2.20;;;;;;;27.49;nan;62715.75;5031329;28;20190;-61
2023/05/27 11:23:45;;;;;;;2.72;2.15;;;;;;;27.31;nan;62726.59;5032498;28;20278;-63
2023/05/27 11:26:14;;;;;;;2.13;1.92;;;;;;;27.45;nan;62729.50;5031036;28;20178;-63
2023/05/27 11:28:47;;;;;;;2.42;2.10;;;;;;;27.65;nan;62770.88;5032284;28;20204;-60
2023/05/27 11:31:14;;;;;;;2.75;2.15;;;;;;;27.60;nan;62789.34;5031551;28;20214;-60
2023/05/27 11:33:44;;;;;;;3.35;2.50;;;;;;;27.37;nan;62739.31;5031450;28;20179;-63
2023/05/27 11:36:14;;;;;;;3.13;2.28;;;;;;;27.82;nan;62771.97;5032589;28;20562;-61
2023/05/27 11:38:54;;;;;;;5.47;2.55;;;;;;;28.06;nan;62798.94;5012665;28;20234;-61
2023/05/27 11:41:28;;;;;;;3.03;2.40;;;;;;;28.20;nan;62835.47;5029907;28;20182;-59
2023/05/27 11:43:58;;;;;;;3.35;2.35;;;;;;;27.34;nan;62674.91;5027340;28;20201;-62
2023/05/27 11:46:36;;;;;;;4.25;2.38;;;;;;;25.80;nan;62498.22;5031350;28;20190;-61
2023/05/27 11:49:07;;;;;;;3.25;2.28;;;;;;;24.59;nan;62283.72;5029609;28;20198;-60